Terminal Aerodrome Forecast
Issued by NWS

Home | Current Version | Previous Version | Text Only | Print | Product List | Glossary On
Versions: 1 2 3 4 5 6 7 8 9 10 11 12 13 14 15 16
487
FTUS45 KABQ 280523
TAFFMN
TAF
KFMN 280523Z 2806/0106 24006KT P6SM BKN025 OVC040
      TEMPO 2806/2810 4SM -RA OVC015
     FM281000 26008KT 2SM -SN OVC010
     FM281800 28012G20KT 5SM -SN OVC025
     FM282000 29018G26KT P6SM BKN040
     FM010100 32009KT P6SM BKN070=

USA.gov is the U.S. government's official web portal to all federal, state and local government web resources and services.